Meteo Giornale » Osservazioni meteo Grecia » Kozani
ore: 20:20 - Osservazioni Meteo Kozani
Lat. 40° 18' N Lon. 21° 47' E Alt. 634 metri s.l.m.
28 °C
Sereno
Temp. 24 Ore
19 °C
34 °C
Est/Sud-Est
9.3 Km/h
Dew point 14 °C
Umidità 42 %
Visibilità 12 Km
Il sole sorge alle ore 07:00
Il sole tramonta alle ore 20:05
| Data e Ora | Cielo e Fenomeni | T °C | DP °C | Um. % | Pres. hPa | Vis. km | Vento km/h | |
|---|---|---|---|---|---|---|---|---|
| Oggi h: 20:20 | Sereno | 28 | 14 | 42 | 1018 | 12 | E/SE 9.3 | |
| Oggi h: 19:50 | Sereno | 29 | 12 | 35 | 1017 | 12 | E/SE 9.3 | |
| Oggi h: 18:50 | Nuvoloso | 32 | 10 | 25 | 1017 | 10 | E/SE 11.1 | |
| Oggi h: 17:50 | Nuvoloso | 33 | 10 | 24 | 1017 | 10 | E 13 | |
| Oggi h: 16:50 | Poco Nuvoloso | 33 | 11 | 26 | 1017 | 10 | SE 11.1 | |
| Oggi h: 15:50 | Poco Nuvoloso | 34 | 11 | 24 | 1017 | 10 | SE 11.1 | |
| Oggi h: 14:50 | Poco Nuvoloso | 33 | 11 | 26 | 1018 | 10 | E 9.3 | |
| Oggi h: 13:50 | Poco Nuvoloso | 32 | 12 | 29 | 1018 | 10 | NE 9.3 | |
| Oggi h: 12:50 | Poco Nuvoloso | 31 | 12 | 31 | 1019 | 10 | N 0 | |
| Oggi h: 11:50 | Poco Nuvoloso | 29 | 11 | 32 | 1019 | 10 | N 0 | |
| Oggi h: 10:50 | Nuvoloso | 28 | 12 | 37 | 1019 | 10 | N 0 | |
| Oggi h: 09:50 | Nuvoloso | 25 | 14 | 50 | 1019 | 10 | N 0 | |
| Oggi h: 08:50 | Nuvoloso | 24 | 16 | 60 | 1019 | 10 | N 0 | |
| Oggi h: 07:50 | Nuvoloso | 21 | 16 | 73 | 1018 | 10 | N 0 | |
| Oggi h: 06:50 | Nuvoloso | 19 | 16 | 82 | 1018 | 10 | N 0 | |
| Oggi h: 05:50 | Nuvoloso | 19 | 15 | 77 | 1018 | 10 | N/NE 7.4 | |
| Oggi h: 04:50 | Poco Nuvoloso | 20 | 16 | 77 | 1018 | 10 | N/NO 7.4 | |
| Oggi h: 04:20 | Sereno | 20 | 16 | 77 | 1018 | 10 | N 5.5 | |
| Oggi h: 03:50 | Sereno | 20 | 16 | 77 | 1018 | 10 | N 3.7 | |
| Oggi h: 03:20 | Sereno | 21 | 16 | 73 | 1018 | 10 | N/NO 7.4 | |
| Oggi h: 02:50 | Sereno | 20 | 16 | 77 | 1018 | 0 | N/NO 7.4 | |
| Oggi h: 02:20 | Sereno | 20 | 16 | 77 | 1019 | 0 | N 5.5 | |
| Oggi h: 01:50 | Sereno | 20 | 16 | 77 | 1019 | 0 | N 1.8 | |
| Oggi h: 01:20 | Sereno | 22 | 16 | 68 | 1019 | 0 | N 3.7 | |
| Oggi h: 00:50 | Sereno | 21 | 16 | 73 | 1019 | 0 | O 7.4 | |
| Oggi h: 00:20 | Sereno | 21 | 16 | 73 | 1018 | 0 | N 5.5 | |
| Ieri h: 23:50 | Sereno | 21 | 16 | 73 | 1018 | 0 | N 3.7 | |
| Ieri h: 23:20 | Sereno | 22 | 15 | 64 | 1019 | 0 | N 5.5 | |
| Ieri h: 22:50 | Sereno | 22 | 15 | 64 | 1019 | 0 | N 5.5 | |
| Ieri h: 22:20 | Sereno | 23 | 14 | 56 | 1018 | 0 | N 3.7 | |
| Ieri h: 21:50 | Sereno | 24 | 14 | 53 | 1018 | 0 | N 1.8 | |
| Ieri h: 21:20 | Sereno | 25 | 13 | 47 | 1018 | 0 | N 5.5 | |
| Ieri h: 20:50 | Sereno | 26 | 14 | 47 | 1017 | 0 | S/SE 7.4 | |



